createdAt,value
2019-02-20T00:01:21.860Z,6.50
2019-02-20T00:03:50.634Z,6.40
2019-02-20T00:06:19.795Z,6.40
2019-02-20T00:08:48.616Z,6.40
2019-02-20T00:11:17.516Z,6.50
2019-02-20T00:13:50.568Z,6.50
2019-02-20T00:16:19.533Z,6.60
2019-02-20T00:18:48.736Z,6.60
2019-02-20T00:21:17.537Z,6.70
2019-02-20T00:23:47.149Z,6.70
2019-02-20T00:26:15.879Z,6.60
2019-02-20T00:28:44.730Z,6.50
2019-02-20T00:31:13.523Z,6.50
2019-02-20T00:33:43.528Z,6.50
2019-02-20T00:36:12.333Z,6.50
2019-02-20T00:38:41.118Z,6.50
2019-02-20T00:41:09.929Z,6.50
2019-02-20T00:43:40.567Z,6.40
2019-02-20T00:46:35.012Z,6.40
2019-02-20T00:49:28.736Z,6.40
2019-02-20T00:52:16.587Z,6.40
2019-02-20T00:54:45.532Z,6.40
2019-02-20T00:57:14.403Z,6.30
2019-02-20T00:59:43.212Z,6.40
2019-02-20T01:02:11.979Z,6.40
2019-02-20T01:04:40.971Z,6.30
2019-02-20T01:07:09.694Z,6.30
2019-02-20T01:09:38.674Z,6.30
2019-02-20T01:12:07.633Z,6.30
2019-02-20T01:14:37.095Z,6.20
2019-02-20T01:17:05.923Z,6.20
2019-02-20T01:19:35.128Z,6.20
2019-02-20T01:22:03.870Z,6.10
2019-02-20T01:24:32.603Z,6.00
2019-02-20T01:27:01.460Z,6.00
2019-02-20T01:29:30.251Z,5.90
2019-02-20T01:31:59.296Z,6.00
2019-02-20T01:34:28.216Z,5.90
2019-02-20T01:36:57.003Z,5.90
2019-02-20T01:39:25.756Z,5.90
2019-02-20T01:41:54.490Z,5.90
2019-02-20T01:44:23.656Z,5.80
2019-02-20T01:46:52.534Z,5.80
2019-02-20T01:49:21.280Z,5.70
2019-02-20T01:51:50.143Z,5.70
2019-02-20T01:54:19.056Z,5.60
2019-02-20T01:56:47.894Z,5.60
2019-02-20T01:59:16.644Z,5.60
2019-02-20T02:01:45.613Z,5.50
2019-02-20T02:04:14.636Z,5.50
2019-02-20T02:06:43.353Z,5.50
2019-02-20T02:09:12.699Z,5.50
2019-02-20T02:11:41.483Z,5.40
2019-02-20T02:14:10.505Z,5.40
2019-02-20T02:16:39.449Z,5.40
2019-02-20T02:19:08.358Z,5.40
2019-02-20T02:21:37.223Z,5.50
2019-02-20T02:24:06.205Z,5.60
2019-02-20T02:26:34.986Z,5.60
2019-02-20T02:29:03.851Z,5.60
2019-02-20T02:31:32.689Z,5.60
2019-02-20T02:34:01.522Z,5.60
2019-02-20T02:36:30.495Z,5.60
2019-02-20T02:38:59.259Z,5.60
2019-02-20T02:41:28.316Z,5.60
2019-02-20T02:43:57.451Z,5.50
2019-02-20T02:46:26.297Z,5.50
2019-02-20T02:48:55.027Z,5.40
2019-02-20T02:51:24.112Z,5.40
2019-02-20T02:53:53.191Z,5.50
2019-02-20T02:56:22.306Z,5.50
2019-02-20T02:58:51.106Z,5.50
2019-02-20T03:01:19.878Z,5.50
2019-02-20T03:03:48.706Z,5.60
2019-02-20T03:06:17.596Z,5.60
2019-02-20T03:08:46.380Z,5.40
2019-02-20T03:11:15.156Z,5.40
2019-02-20T03:13:44.327Z,5.40
2019-02-20T03:16:14.027Z,5.40
2019-02-20T03:18:42.844Z,5.50
2019-02-20T03:21:11.603Z,5.50
2019-02-20T03:23:40.746Z,5.50
2019-02-20T03:26:09.777Z,5.50
2019-02-20T03:28:40.204Z,5.40
2019-02-20T03:31:09.059Z,5.40
2019-02-20T03:33:38.571Z,5.40
2019-02-20T03:36:07.427Z,5.30
2019-02-20T03:38:36.175Z,5.20
2019-02-20T03:41:05.140Z,5.30
2019-02-20T03:43:34.172Z,5.30
2019-02-20T03:46:03.312Z,5.20
2019-02-20T03:48:32.129Z,5.20
2019-02-20T03:51:00.865Z,5.20
2019-02-20T03:53:29.669Z,5.20
2019-02-20T03:55:58.563Z,5.10
2019-02-20T03:58:27.711Z,5.10
2019-02-20T04:00:56.584Z,5.10
2019-02-20T04:03:25.385Z,5.00
2019-02-20T04:05:54.257Z,5.00
2019-02-20T04:08:23.475Z,5.10
2019-02-20T04:10:52.216Z,5.00
2019-02-20T04:13:20.933Z,5.00
2019-02-20T04:15:49.733Z,5.10
2019-02-20T04:18:18.983Z,5.10
2019-02-20T04:20:47.766Z,5.10
2019-02-20T04:23:16.567Z,5.10
2019-02-20T04:25:45.435Z,5.10
2019-02-20T04:28:14.154Z,5.00
2019-02-20T04:30:43.368Z,5.00
2019-02-20T04:33:12.168Z,4.90
2019-02-20T04:35:41.093Z,4.90
2019-02-20T04:38:10.125Z,4.80
2019-02-20T04:40:39.240Z,4.80
2019-02-20T04:43:08.030Z,4.90
2019-02-20T04:45:37.405Z,4.80
2019-02-20T04:48:06.191Z,4.80
2019-02-20T04:50:35.007Z,4.80
2019-02-20T04:53:03.780Z,4.80
2019-02-20T04:55:32.745Z,4.70
2019-02-20T04:58:21.220Z,4.60
2019-02-20T05:00:50.500Z,4.60
2019-02-20T05:03:19.632Z,4.50
2019-02-20T05:05:48.542Z,4.50
2019-02-20T05:08:17.607Z,4.30
2019-02-20T05:10:46.484Z,4.30
2019-02-20T05:13:15.909Z,4.20
2019-02-20T05:15:44.829Z,4.10
2019-02-20T05:18:13.964Z,4.00
2019-02-20T05:20:43.062Z,3.90
2019-02-20T05:23:11.926Z,4.00
2019-02-20T05:25:40.949Z,4.10
2019-02-20T05:28:10.137Z,4.20
2019-02-20T05:30:38.901Z,4.30
2019-02-20T05:33:08.449Z,4.40
2019-02-20T05:35:37.281Z,4.60
2019-02-20T05:38:06.148Z,4.80
2019-02-20T05:40:34.968Z,5.00
2019-02-20T05:43:03.801Z,5.10
2019-02-20T05:45:33.134Z,5.10
2019-02-20T05:48:02.151Z,5.20
2019-02-20T05:50:31.191Z,5.20
2019-02-20T05:53:00.105Z,5.30
2019-02-20T05:55:29.016Z,5.30
2019-02-20T05:57:57.827Z,5.40
2019-02-20T06:00:26.593Z,5.50
2019-02-20T06:02:55.661Z,5.50
2019-02-20T06:05:24.476Z,5.50
2019-02-20T06:07:53.636Z,5.60
2019-02-20T06:10:22.456Z,5.60
2019-02-20T06:12:51.245Z,5.60
2019-02-20T06:15:20.027Z,5.60
2019-02-20T06:17:48.879Z,5.70
2019-02-20T06:20:17.697Z,5.60
2019-02-20T06:22:46.536Z,5.70
2019-02-20T06:25:15.402Z,5.70
2019-02-20T06:27:44.202Z,5.60
2019-02-20T06:30:13.019Z,5.70
2019-02-20T06:32:41.763Z,5.70
2019-02-20T06:35:11.043Z,5.60
2019-02-20T06:37:39.864Z,5.70
2019-02-20T06:40:09.256Z,5.80
2019-02-20T06:42:38.156Z,5.80
2019-02-20T06:45:07.241Z,5.80
2019-02-20T06:47:36.143Z,5.80
2019-02-20T06:50:05.035Z,5.90
2019-02-20T06:52:33.767Z,5.90
2019-02-20T06:55:02.640Z,5.90
2019-02-20T06:57:31.483Z,5.90
2019-02-20T07:00:00.462Z,5.90
2019-02-20T07:02:29.685Z,6.00
2019-02-20T07:05:48.032Z,6.00
2019-02-20T07:09:06.504Z,6.00
2019-02-20T07:11:57.956Z,6.10
2019-02-20T07:15:19.943Z,6.10
2019-02-20T07:18:27.234Z,6.20
2019-02-20T07:21:11.525Z,6.20
2019-02-20T07:23:50.316Z,6.20
2019-02-20T07:26:56.282Z,6.20
2019-02-20T07:29:59.880Z,6.30
2019-02-20T07:32:29.619Z,6.30
2019-02-20T07:34:58.402Z,6.30
2019-02-20T07:37:27.317Z,6.30
2019-02-20T07:39:57.405Z,6.40
2019-02-20T07:42:26.701Z,6.40
2019-02-20T07:44:55.597Z,6.40
2019-02-20T07:47:24.767Z,6.40
2019-02-20T07:49:53.558Z,6.40
2019-02-20T07:52:22.412Z,6.50
2019-02-20T07:54:51.352Z,6.50
2019-02-20T07:57:20.439Z,6.50
2019-02-20T07:59:49.228Z,6.50
2019-02-20T08:02:18.138Z,6.50
2019-02-20T08:04:46.937Z,6.50
2019-02-20T08:07:15.819Z,6.60
2019-02-20T08:09:44.621Z,6.70
2019-02-20T08:12:13.427Z,6.60
2019-02-20T08:14:42.178Z,6.60
2019-02-20T08:17:10.932Z,6.70
2019-02-20T08:19:40.906Z,6.70
2019-02-20T08:22:10.134Z,6.70
2019-02-20T08:24:39.829Z,6.70
2019-02-20T08:27:08.607Z,6.80
2019-02-20T08:29:37.385Z,6.80
2019-02-20T08:32:06.203Z,6.80
2019-02-20T08:34:34.980Z,6.80
2019-02-20T08:37:04.737Z,6.80
2019-02-20T08:39:33.844Z,6.90
2019-02-20T08:42:02.687Z,6.90
2019-02-20T08:44:31.539Z,6.90
2019-02-20T08:47:00.519Z,6.90
2019-02-20T08:49:30.046Z,6.90
2019-02-20T08:51:59.544Z,7.00
2019-02-20T08:54:28.622Z,6.90
2019-02-20T08:56:57.469Z,6.90
2019-02-20T08:59:26.242Z,7.00
2019-02-20T09:01:55.134Z,7.10
2019-02-20T09:04:23.976Z,7.10
2019-02-20T09:06:52.803Z,7.10
2019-02-20T09:09:21.880Z,7.20
2019-02-20T09:11:50.808Z,7.10
2019-02-20T09:14:19.824Z,7.20
2019-02-20T09:16:48.637Z,7.20
2019-02-20T09:19:17.443Z,7.30
2019-02-20T09:21:46.185Z,7.30
2019-02-20T09:24:15.197Z,7.30
2019-02-20T09:26:44.725Z,7.30
2019-02-20T09:29:13.917Z,7.30
2019-02-20T09:31:42.785Z,7.40
2019-02-20T09:34:11.702Z,7.30
2019-02-20T09:36:40.538Z,7.30
2019-02-20T09:39:31.106Z,7.40
2019-02-20T09:42:00.680Z,7.40
2019-02-20T09:44:31.995Z,7.50
2019-02-20T09:47:00.780Z,7.60
2019-02-20T09:49:29.535Z,7.70
2019-02-20T09:51:58.352Z,7.80
2019-02-20T09:54:27.622Z,8.00
2019-02-20T09:56:56.636Z,8.00
2019-02-20T09:59:25.474Z,8.20
2019-02-20T10:01:54.295Z,8.40
2019-02-20T10:04:23.173Z,8.50
2019-02-20T10:06:52.033Z,8.50
2019-02-20T10:09:20.904Z,8.70
2019-02-20T10:11:50.105Z,8.60
2019-02-20T10:14:18.910Z,8.90
2019-02-20T10:16:49.518Z,9.40
2019-02-20T10:19:18.423Z,9.60
2019-02-20T10:21:47.363Z,9.70
2019-02-20T10:24:16.201Z,10.50
2019-02-20T10:26:47.049Z,11.10
2019-02-20T10:29:15.927Z,11.40
2019-02-20T10:31:44.813Z,10.90
2019-02-20T10:34:14.340Z,11.00
2019-02-20T10:36:43.117Z,11.50
2019-02-20T10:39:12.261Z,11.90
2019-02-20T10:41:41.127Z,11.80
2019-02-20T10:44:09.858Z,12.40
2019-02-20T10:46:39.876Z,13.00
2019-02-20T10:49:08.681Z,11.80
2019-02-20T10:51:38.466Z,11.50
2019-02-20T10:54:07.260Z,12.00
2019-02-20T10:56:36.076Z,11.60
2019-02-20T10:59:05.031Z,11.90
2019-02-20T11:01:34.142Z,12.20
2019-02-20T11:04:03.178Z,12.80
2019-02-20T11:06:31.981Z,13.40
2019-02-20T11:09:01.181Z,13.40
2019-02-20T11:11:29.940Z,12.80
2019-02-20T11:13:58.846Z,12.60
2019-02-20T11:16:27.969Z,12.90
2019-02-20T11:18:57.553Z,13.00
2019-02-20T11:21:26.533Z,13.50
2019-02-20T11:23:55.334Z,13.30
2019-02-20T11:26:24.466Z,12.80
2019-02-20T11:28:53.232Z,12.70
2019-02-20T11:31:22.315Z,12.80
2019-02-20T11:33:51.094Z,12.90
2019-02-20T11:36:20.170Z,12.40
2019-02-20T11:38:49.223Z,12.10
2019-02-20T11:41:17.975Z,11.50
2019-02-20T11:43:46.722Z,11.70
2019-02-20T11:46:15.506Z,11.80
2019-02-20T11:48:45.272Z,12.10
2019-02-20T11:51:14.203Z,12.60
2019-02-20T11:53:42.976Z,13.00
2019-02-20T11:56:12.377Z,13.20
2019-02-20T11:58:41.368Z,14.00
2019-02-20T12:01:10.159Z,14.20
2019-02-20T12:03:38.977Z,13.90
2019-02-20T12:06:07.840Z,13.70
2019-02-20T12:08:42.908Z,13.50
2019-02-20T12:11:11.920Z,13.40
2019-02-20T12:13:41.098Z,13.50
2019-02-20T12:16:09.943Z,13.00
2019-02-20T12:18:38.770Z,13.20
2019-02-20T12:21:07.612Z,13.90
2019-02-20T12:23:37.032Z,14.50
2019-02-20T12:26:08.935Z,14.60
2019-02-20T12:28:37.733Z,14.80
2019-02-20T12:31:06.908Z,14.10
2019-02-20T12:33:35.893Z,13.60
2019-02-20T12:36:05.004Z,13.90
2019-02-20T12:38:33.794Z,14.10
2019-02-20T12:41:02.533Z,14.70
2019-02-20T12:43:31.304Z,16.10
2019-02-20T12:46:00.049Z,16.40
2019-02-20T12:50:57.094Z,17.30
2019-02-20T12:53:25.841Z,17.50
2019-02-20T12:55:55.257Z,17.50
2019-02-20T12:58:24.232Z,16.20
2019-02-20T13:00:53.123Z,15.90
2019-02-20T13:03:21.847Z,15.70
2019-02-20T13:05:50.567Z,15.50
2019-02-20T13:08:19.733Z,15.50
2019-02-20T13:10:48.609Z,16.40
2019-02-20T13:13:17.455Z,16.60
2019-02-20T13:15:46.226Z,16.50
2019-02-20T13:18:15.101Z,16.40
2019-02-20T13:20:44.009Z,14.80
2019-02-20T13:23:12.888Z,13.50
2019-02-20T13:25:42.045Z,13.30
2019-02-20T13:28:10.867Z,12.90
2019-02-20T13:30:39.676Z,13.10
2019-02-20T13:33:08.400Z,14.30
2019-02-20T13:35:37.520Z,14.90
2019-02-20T13:38:06.371Z,15.00
2019-02-20T13:40:35.127Z,14.90
2019-02-20T13:43:04.169Z,13.60
2019-02-20T13:45:33.181Z,12.90
2019-02-20T13:48:03.476Z,12.70
2019-02-20T13:50:32.271Z,13.40
2019-02-20T13:53:01.067Z,14.20
2019-02-20T13:55:34.499Z,14.20
2019-02-20T13:58:00.432Z,13.10
2019-02-20T14:00:29.297Z,12.30
2019-02-20T14:02:58.156Z,11.90
2019-02-20T14:05:27.018Z,11.90
2019-02-20T14:07:55.846Z,11.70
2019-02-20T14:10:25.680Z,11.90
2019-02-20T14:12:54.575Z,11.80
2019-02-20T14:15:23.387Z,11.50
2019-02-20T14:17:52.167Z,11.50
2019-02-20T14:20:21.316Z,11.50
2019-02-20T14:22:50.410Z,11.10
2019-02-20T14:25:19.237Z,11.10
2019-02-20T14:27:48.379Z,11.20
2019-02-20T14:30:17.318Z,11.00
2019-02-20T14:32:46.247Z,11.10
2019-02-20T14:35:15.197Z,11.20
2019-02-20T14:37:44.251Z,11.10
2019-02-20T14:40:13.759Z,11.10
2019-02-20T14:42:42.676Z,11.00
2019-02-20T14:45:11.774Z,11.00
2019-02-20T14:47:40.507Z,11.30
2019-02-20T14:50:09.716Z,11.70
2019-02-20T14:52:38.887Z,11.80
2019-02-20T14:55:08.963Z,11.80
2019-02-20T14:57:37.895Z,12.00
2019-02-20T15:00:07.978Z,11.90
2019-02-20T15:02:37.224Z,12.00
2019-02-20T15:05:06.300Z,11.90
2019-02-20T15:07:35.604Z,11.70
2019-02-20T15:10:04.823Z,11.70
2019-02-20T15:12:33.879Z,11.70
2019-02-20T15:15:10.265Z,12.00
2019-02-20T15:17:33.376Z,12.20
2019-02-20T15:20:02.273Z,12.30
2019-02-20T15:22:31.164Z,12.00
2019-02-20T15:25:00.976Z,11.90
2019-02-20T15:27:29.820Z,11.70
2019-02-20T15:29:58.631Z,11.60
2019-02-20T15:32:29.122Z,11.40
2019-02-20T15:34:57.921Z,11.20
2019-02-20T15:37:26.818Z,11.00
2019-02-20T15:39:55.903Z,10.80
2019-02-20T15:42:24.756Z,10.60
2019-02-20T15:44:53.890Z,10.50
2019-02-20T15:47:22.816Z,10.60
2019-02-20T15:49:51.675Z,10.40
2019-02-20T15:52:20.423Z,10.30
2019-02-20T15:54:50.025Z,10.20
2019-02-20T15:57:18.820Z,10.10
2019-02-20T15:59:47.660Z,10.00
2019-02-20T16:02:16.532Z,9.80
2019-02-20T16:04:45.431Z,9.80
2019-02-20T16:07:14.226Z,9.70
2019-02-20T16:09:43.596Z,9.60
2019-02-20T16:12:12.590Z,9.60
2019-02-20T16:14:42.169Z,9.50
2019-02-20T16:17:11.942Z,9.40
2019-02-20T16:19:41.844Z,9.30
2019-02-20T16:22:10.760Z,9.30
2019-02-20T16:24:40.266Z,9.20
2019-02-20T16:27:09.391Z,9.10
2019-02-20T16:29:38.552Z,8.90
2019-02-20T16:32:07.357Z,8.80
2019-02-20T16:34:36.080Z,8.80
2019-02-20T16:37:06.925Z,8.70
2019-02-20T16:39:35.753Z,8.70
2019-02-20T16:42:04.788Z,8.60
2019-02-20T16:44:33.601Z,8.60
2019-02-20T16:47:02.433Z,8.50
2019-02-20T16:49:31.317Z,8.40
2019-02-20T16:52:00.568Z,8.30
2019-02-20T16:54:29.396Z,8.20
2019-02-20T16:56:58.182Z,8.20
2019-02-20T16:59:27.183Z,8.40
2019-02-20T17:01:55.992Z,8.30
2019-02-20T17:04:24.792Z,8.20
2019-02-20T17:06:53.658Z,8.20
2019-02-20T17:09:22.580Z,8.10
2019-02-20T17:11:51.456Z,8.10
2019-02-20T17:14:20.552Z,8.00
2019-02-20T17:16:49.303Z,8.00
2019-02-20T17:19:18.104Z,7.80
2019-02-20T17:21:46.999Z,7.70
2019-02-20T17:24:15.809Z,7.90
2019-02-20T17:26:44.628Z,7.90
2019-02-20T17:29:13.456Z,7.80
2019-02-20T17:31:42.343Z,7.70
2019-02-20T17:34:11.671Z,7.70
2019-02-20T17:36:40.447Z,7.60
2019-02-20T17:39:10.037Z,7.50
2019-02-20T17:41:38.835Z,7.30
2019-02-20T17:44:08.131Z,7.20
2019-02-20T17:46:37.348Z,7.10
2019-02-20T17:49:06.488Z,7.00
2019-02-20T17:51:35.382Z,6.90
2019-02-20T17:54:04.195Z,7.10
2019-02-20T17:56:33.331Z,7.30
2019-02-20T17:59:02.208Z,7.30
2019-02-20T18:01:30.980Z,7.50
2019-02-20T18:04:00.048Z,7.50
2019-02-20T18:06:28.925Z,7.50
2019-02-20T18:08:57.676Z,7.40
2019-02-20T18:11:26.979Z,7.40
2019-02-20T18:13:55.739Z,7.40
2019-02-20T18:16:24.523Z,7.40
2019-02-20T18:18:53.239Z,7.30
2019-02-20T18:21:22.011Z,7.30
2019-02-20T18:23:50.775Z,7.20
2019-02-20T18:26:19.566Z,7.20
2019-02-20T18:28:48.301Z,7.20
2019-02-20T18:31:17.173Z,7.20
2019-02-20T18:33:45.967Z,7.10
2019-02-20T18:36:15.153Z,7.10
2019-02-20T18:38:43.981Z,7.00
2019-02-20T18:41:14.584Z,7.00
2019-02-20T18:43:44.035Z,7.00
2019-02-20T18:46:13.054Z,7.00
2019-02-20T18:48:41.992Z,7.00
2019-02-20T18:51:10.763Z,6.90
2019-02-20T18:53:39.619Z,7.00
2019-02-20T18:56:08.997Z,6.90
2019-02-20T18:58:37.860Z,6.80
2019-02-20T19:01:06.888Z,6.70
2019-02-20T19:03:35.746Z,6.60
2019-02-20T19:06:04.672Z,6.60
2019-02-20T19:08:56.343Z,6.50
2019-02-20T19:11:28.884Z,6.50
2019-02-20T19:14:28.716Z,6.40
2019-02-20T19:17:42.141Z,6.40
2019-02-20T19:20:54.244Z,6.20
2019-02-20T19:23:59.336Z,6.00
2019-02-20T19:26:49.059Z,6.10
2019-02-20T19:29:51.574Z,6.10
2019-02-20T19:33:08.247Z,6.10
2019-02-20T19:36:12.717Z,6.00
2019-02-20T19:39:29.842Z,6.00
2019-02-20T19:42:43.011Z,5.90
2019-02-20T19:46:02.568Z,5.90
2019-02-20T19:48:44.302Z,5.90
2019-02-20T19:51:49.584Z,6.10
2019-02-20T19:54:36.164Z,6.10
2019-02-20T19:57:32.445Z,6.20
2019-02-20T20:00:34.116Z,6.20
2019-02-20T20:03:29.794Z,6.20
2019-02-20T20:06:29.765Z,6.20
2019-02-20T20:09:34.938Z,6.20
2019-02-20T20:12:48.531Z,6.20
2019-02-20T20:15:29.814Z,6.40
2019-02-20T20:18:30.566Z,6.40
2019-02-20T20:21:43.000Z,6.50
2019-02-20T20:24:25.597Z,6.60
2019-02-20T20:27:23.034Z,6.60
2019-02-20T20:30:38.822Z,6.40
2019-02-20T20:34:02.584Z,6.60
2019-02-20T20:37:21.065Z,6.50
2019-02-20T20:40:13.183Z,6.50
2019-02-20T20:43:29.766Z,6.50
2019-02-20T20:46:54.873Z,6.30
2019-02-20T20:49:55.178Z,6.30
2019-02-20T20:52:54.505Z,6.20
2019-02-20T20:55:50.119Z,6.30
2019-02-20T20:58:33.926Z,6.30
2019-02-20T21:01:36.892Z,6.10
2019-02-20T21:04:47.105Z,5.90
2019-02-20T21:07:50.982Z,5.80
2019-02-20T21:10:56.801Z,5.70
2019-02-20T21:14:09.154Z,5.60
2019-02-20T21:17:11.283Z,5.50
2019-02-20T21:20:24.288Z,5.50
2019-02-20T21:23:39.025Z,5.40
2019-02-20T21:27:00.298Z,5.30
2019-02-20T21:29:50.873Z,5.30
2019-02-20T21:32:52.421Z,5.30
2019-02-20T21:36:00.013Z,5.20
2019-02-20T21:38:54.239Z,5.20
2019-02-20T21:42:02.811Z,5.20
2019-02-20T21:44:44.463Z,5.10
2019-02-20T21:47:36.067Z,5.00
2019-02-20T21:50:20.327Z,5.00
2019-02-20T21:53:12.685Z,5.00
2019-02-20T21:55:52.710Z,5.10
2019-02-20T21:58:34.988Z,5.10
2019-02-20T22:01:31.874Z,5.10
2019-02-20T22:04:18.986Z,5.20
2019-02-20T22:07:17.524Z,5.20
2019-02-20T22:10:12.598Z,5.00
2019-02-20T22:13:12.990Z,5.00
2019-02-20T22:16:17.818Z,4.90
2019-02-20T22:19:06.812Z,5.30
2019-02-20T22:22:05.220Z,5.30
2019-02-20T22:24:48.703Z,5.50
2019-02-20T22:27:52.823Z,5.80
2019-02-20T22:30:44.254Z,5.80
2019-02-20T22:33:48.470Z,5.70
2019-02-20T22:36:39.189Z,5.60
2019-02-20T22:39:46.339Z,5.70
2019-02-20T22:42:35.630Z,5.90
2019-02-20T22:45:43.468Z,5.80
2019-02-20T22:48:57.437Z,5.70
2019-02-20T22:51:37.205Z,5.50
2019-02-20T22:54:32.539Z,5.40
2019-02-20T22:57:35.090Z,5.40
2019-02-20T23:01:00.724Z,5.40
2019-02-20T23:03:55.973Z,5.40
2019-02-20T23:07:24.739Z,5.50
2019-02-20T23:10:30.675Z,5.30
2019-02-20T23:13:14.800Z,5.60
2019-02-20T23:15:44.079Z,5.60
2019-02-20T23:18:12.912Z,5.70
2019-02-20T23:20:41.868Z,5.60
2019-02-20T23:23:10.955Z,5.60
2019-02-20T23:25:39.881Z,5.70
2019-02-20T23:28:08.751Z,5.70
2019-02-20T23:30:37.699Z,5.60
2019-02-20T23:33:06.509Z,5.50
2019-02-20T23:35:35.391Z,5.60
2019-02-20T23:38:04.159Z,5.60
2019-02-20T23:40:32.959Z,5.60
2019-02-20T23:43:02.097Z,5.60
2019-02-20T23:45:31.048Z,5.60
2019-02-20T23:47:59.870Z,5.80
2019-02-20T23:50:47.910Z,5.80
2019-02-20T23:53:18.671Z,6.10
2019-02-20T23:55:47.190Z,6.10
2019-02-20T23:58:16.025Z,6.10
